Bitflower — SBJE — position and weather

sailwx.info

Track history (hours):
 
Tides and Currents Weather Stations Pressure Air Temp Water Temp Dewpoint Dewpoint Depression Visibility Wind Speed Wind Dir Waves Ship Positions

Bitflower

Last reported at 2015-Feb-25 11:29 UTC. Time now 2015-Feb-27 13:14 UTC.
Position N 54°01' E 004°57'.

Length 116 m; draft 6.5 m.

Type: Ship. MMSI: 266009000.

Date/timePositionNaut miles runAvg speedWind from/ knotsBaromVisibWave heightAir tempDewpointWater temp
2015-Feb-25 11:29N 54°01' E 004°57'1511.0
2015-Feb-25 10:06N 53°46' E 004°52'711.1
2015-Feb-25 09:30N 53°39' E 004°51'1111.7
2015-Feb-25 08:33N 53°29' E 004°45'2811.8
2015-Feb-25 06:10N 53°03' E 004°24'710.9
2015-Feb-25 05:33N 52°58' E 004°18'1010.5
2015-Feb-25 04:33N 52°48' E 004°10'1010.3
2015-Feb-25 03:33N 52°41' E 003°59'51 9.5
2015-Feb-24 22:14N 51°55' E 003°22'1211.2
2015-Feb-24 21:12N 51°44' E 003°16'811.9
2015-Feb-24 20:31N 51°37' E 003°22'1313.7
2015-Feb-24 19:33N 51°26' E 003°34'1010.2
2015-Feb-24 18:34N 51°21' E 003°48'9 9.3
2015-Feb-24 17:34N 51°26' E 004°01'7 6.9
2015-Feb-24 16:33N 51°24' E 004°12'9 9.0
2015-Feb-24 15:33N 51°17' E 004°20'0 0.0
2015-Feb-24 14:34N 51°17' E 004°20'1 1.0
2015-Feb-24 13:32N 51°16' E 004°20'0 0.0
2015-Feb-24 12:32N 51°16' E 004°20'0 0.0
2015-Feb-24 11:29N 51°16' E 004°20'0 0.0
2015-Feb-24 10:32N 51°16' E 004°20'0 0.0
2015-Feb-24 09:32N 51°16' E 004°20'0 0.0
2015-Feb-24 08:32N 51°16' E 004°20'0 0.0
2015-Feb-24 07:32N 51°16' E 004°20'0 0.0
2015-Feb-24 06:29N 51°16' E 004°20'0 0.0
2015-Feb-24 05:29N 51°16' E 004°20'0 0.0
2015-Feb-24 04:26N 51°16' E 004°20'0 0.0
2015-Feb-24 03:26N 51°16' E 004°20'0 0.0
2015-Feb-24 02:29N 51°16' E 004°20'0 0.0
2015-Feb-24 01:23N 51°16' E 004°20'0 0.0
2015-Feb-24 00:32N 51°16' E 004°20'0 0.0
2015-Feb-23 23:26N 51°16' E 004°20'0 0.0
2015-Feb-23 22:32N 51°16' E 004°20'0 0.0
2015-Feb-23 21:32N 51°16' E 004°20'0 0.0
2015-Feb-23 20:29N 51°16' E 004°20'0 0.0
2015-Feb-23 19:29N 51°16' E 004°20'0 0.0
2015-Feb-23 18:32N 51°16' E 004°20'0 0.0
2015-Feb-23 17:29N 51°16' E 004°20'0 0.0
2015-Feb-23 16:29N 51°16' E 004°20'0 0.0
2015-Feb-23 08:33N 51°16' E 004°20'0 0.0
2015-Feb-23 07:30N 51°16' E 004°20'0 0.1
2015-Feb-23 06:33N 51°16' E 004°20'1 1.3
2015-Feb-23 05:33N 51°17' E 004°20'8 7.4
2015-Feb-23 04:33N 51°23' E 004°13'7 6.9
2015-Feb-23 03:34N 51°24' E 004°02'7 7.4
2015-Feb-23 02:34N 51°21' E 003°52'10 9.8
2015-Feb-23 01:33N 51°26' E 003°39'8 8.1
2015-Feb-23 00:33N 51°25' E 003°26'1313.3
2015-Feb-22 23:33N 51°24' E 003°05'1212.2
2015-Feb-22 22:34N 51°22' E 002°46'10 9.6
2015-Feb-22 21:32N 51°22' E 002°30'9 9.5
2015-Feb-22 20:33N 51°18' E 002°16'1010.6
2015-Feb-22 19:33N 51°12' E 002°02'1111.3
2015-Feb-22 18:33N 51°07' E 001°46'1312.8
2015-Feb-22 17:33N 50°58' E 001°32'  
2015-Feb-20 02:21N 54°15' W 005°24'7 9.0
2015-Feb-20 01:33N 54°22' W 005°19'9 8.7
2015-Feb-20 00:33N 54°30' W 005°21'9 9.5
2015-Feb-19 23:33N 54°39' W 005°26'9 8.8
2015-Feb-19 22:33N 54°42' W 005°40'7 0.5
2015-Feb-19 10:30N 54°40' W 005°51'8 8.5
2015-Feb-19 09:33N 54°43' W 005°38'6 6.4
2015-Feb-19 08:33N 54°41' W 005°27'8 8.4
2015-Feb-19 07:33N 54°33' W 005°23'9 8.9
2015-Feb-19 06:33N 54°25' W 005°18'1010.3
2015-Feb-19 05:33N 54°15' W 005°20'19311.9
2015-Feb-18 13:25N 51°03' W 005°53'237 8.5
2015-Feb-17 09:30N 50°34' E 000°19'1111.7
2015-Feb-17 08:32N 50°37' E 000°37'1212.7
2015-Feb-17 07:33N 50°45' E 000°52'2512.6
2015-Feb-17 05:33N 50°60' E 001°24'1414.3
2015-Feb-17 04:33N 51°10' E 001°41'1312.9
2015-Feb-17 03:34N 51°20' E 001°53'1211.5
2015-Feb-17 02:33N 51°30' E 002°03'1110.8
2015-Feb-17 01:33N 51°38' E 002°14'6110.1
2015-Feb-16 19:32N 52°04' E 003°43'1111.0
2015-Feb-16 18:33N 52°01' E 004°00'1313.1
2015-Feb-16 17:33N 51°53' E 004°18'1 0.9
2015-Feb-16 16:26N 51°53' E 004°16'0 0.0
2015-Feb-16 15:29N 51°53' E 004°16'0 0.0
2015-Feb-16 14:32N 51°53' E 004°16'0 0.0
2015-Feb-16 13:32N 51°53' E 004°16'0 0.0
2015-Feb-16 12:26N 51°53' E 004°16'0 0.0
2015-Feb-16 11:32N 51°53' E 004°16'0 0.0
2015-Feb-16 10:32N 51°53' E 004°16'0 0.0
2015-Feb-16 09:32N 51°53' E 004°16'0 0.0
2015-Feb-16 08:32N 51°53' E 004°16'0 0.0
2015-Feb-16 07:32N 51°53' E 004°16'0 0.0
2015-Feb-16 06:23N 51°53' E 004°16'0 0.0
2015-Feb-16 05:32N 51°53' E 004°16'0 0.0
2015-Feb-16 04:32N 51°53' E 004°16'0 0.0
2015-Feb-16 03:23N 51°53' E 004°16'0 0.0
2015-Feb-16 02:32N 51°53' E 004°16'0 0.0
2015-Feb-16 01:32N 51°53' E 004°16'0 0.0
2015-Feb-16 00:32N 51°53' E 004°16'0 0.0
2015-Feb-15 23:32N 51°53' E 004°16'0 0.0
2015-Feb-15 22:32N 51°53' E 004°16'0 0.0
2015-Feb-15 21:29N 51°53' E 004°16'0 0.0
2015-Feb-15 20:32N 51°53' E 004°16'0 0.0
2015-Feb-15 19:29N 51°53' E 004°16'0 0.0
2015-Feb-15 18:33N 51°53' E 004°16'1 0.7
2015-Feb-15 17:33N 51°54' E 004°16'8 8.4
2015-Feb-15 16:33N 51°59' E 004°05'5 5.2
2015-Feb-15 15:31N 51°56' E 004°12'0 0.0
2015-Feb-15 14:31N 51°56' E 004°12'0 0.0
2015-Feb-15 13:31N 51°56' E 004°12'0 0.0
2015-Feb-15 12:31N 51°56' E 004°12'0 0.0
2015-Feb-15 11:31N 51°56' E 004°12'  
Track history (hours):
 
Tides and Currents Weather Stations Pressure Air Temp Water Temp Dewpoint Dewpoint Depression Visibility Wind Speed Wind Dir Waves Ship Positions

Bitflower

Last reported at 2015-Feb-25 11:29 UTC. Time now 2015-Feb-27 13:14 UTC.
Position N 54°01' E 004°57'.

Length 116 m; draft 6.5 m.

Type: Ship. MMSI: 266009000.

Date/timePositionNaut miles runAvg speedWind from/ knotsBaromVisibWave heightAir tempDewpointWater temp
2015-Feb-25 11:29N 54°01' E 004°57'1511.0
2015-Feb-25 10:06N 53°46' E 004°52'711.1
2015-Feb-25 09:30N 53°39' E 004°51'1111.7
2015-Feb-25 08:33N 53°29' E 004°45'2811.8
2015-Feb-25 06:10N 53°03' E 004°24'710.9
2015-Feb-25 05:33N 52°58' E 004°18'1010.5
2015-Feb-25 04:33N 52°48' E 004°10'1010.3
2015-Feb-25 03:33N 52°41' E 003°59'51 9.5
2015-Feb-24 22:14N 51°55' E 003°22'1211.2
2015-Feb-24 21:12N 51°44' E 003°16'811.9
2015-Feb-24 20:31N 51°37' E 003°22'1313.7
2015-Feb-24 19:33N 51°26' E 003°34'1010.2
2015-Feb-24 18:34N 51°21' E 003°48'9 9.3
2015-Feb-24 17:34N 51°26' E 004°01'7 6.9
2015-Feb-24 16:33N 51°24' E 004°12'9 9.0
2015-Feb-24 15:33N 51°17' E 004°20'0 0.0
2015-Feb-24 14:34N 51°17' E 004°20'1 1.0
2015-Feb-24 13:32N 51°16' E 004°20'0 0.0
2015-Feb-24 12:32N 51°16' E 004°20'0 0.0
2015-Feb-24 11:29N 51°16' E 004°20'0 0.0
2015-Feb-24 10:32N 51°16' E 004°20'0 0.0
2015-Feb-24 09:32N 51°16' E 004°20'0 0.0
2015-Feb-24 08:32N 51°16' E 004°20'0 0.0
2015-Feb-24 07:32N 51°16' E 004°20'0 0.0
2015-Feb-24 06:29N 51°16' E 004°20'0 0.0
2015-Feb-24 05:29N 51°16' E 004°20'0 0.0
2015-Feb-24 04:26N 51°16' E 004°20'0 0.0
2015-Feb-24 03:26N 51°16' E 004°20'0 0.0
2015-Feb-24 02:29N 51°16' E 004°20'0 0.0
2015-Feb-24 01:23N 51°16' E 004°20'0 0.0
2015-Feb-24 00:32N 51°16' E 004°20'0 0.0
2015-Feb-23 23:26N 51°16' E 004°20'0 0.0
2015-Feb-23 22:32N 51°16' E 004°20'0 0.0
2015-Feb-23 21:32N 51°16' E 004°20'0 0.0
2015-Feb-23 20:29N 51°16' E 004°20'0 0.0
2015-Feb-23 19:29N 51°16' E 004°20'0 0.0
2015-Feb-23 18:32N 51°16' E 004°20'0 0.0
2015-Feb-23 17:29N 51°16' E 004°20'0 0.0
2015-Feb-23 16:29N 51°16' E 004°20'0 0.0
2015-Feb-23 08:33N 51°16' E 004°20'0 0.0
2015-Feb-23 07:30N 51°16' E 004°20'0 0.1
2015-Feb-23 06:33N 51°16' E 004°20'1 1.3
2015-Feb-23 05:33N 51°17' E 004°20'8 7.4
2015-Feb-23 04:33N 51°23' E 004°13'7 6.9
2015-Feb-23 03:34N 51°24' E 004°02'7 7.4
2015-Feb-23 02:34N 51°21' E 003°52'10 9.8
2015-Feb-23 01:33N 51°26' E 003°39'8 8.1
2015-Feb-23 00:33N 51°25' E 003°26'1313.3
2015-Feb-22 23:33N 51°24' E 003°05'1212.2
2015-Feb-22 22:34N 51°22' E 002°46'10 9.6
2015-Feb-22 21:32N 51°22' E 002°30'9 9.5
2015-Feb-22 20:33N 51°18' E 002°16'1010.6
2015-Feb-22 19:33N 51°12' E 002°02'1111.3
2015-Feb-22 18:33N 51°07' E 001°46'1312.8
2015-Feb-22 17:33N 50°58' E 001°32'  
2015-Feb-20 02:21N 54°15' W 005°24'7 9.0
2015-Feb-20 01:33N 54°22' W 005°19'9 8.7
2015-Feb-20 00:33N 54°30' W 005°21'9 9.5
2015-Feb-19 23:33N 54°39' W 005°26'9 8.8
2015-Feb-19 22:33N 54°42' W 005°40'7 0.5
2015-Feb-19 10:30N 54°40' W 005°51'8 8.5
2015-Feb-19 09:33N 54°43' W 005°38'6 6.4
2015-Feb-19 08:33N 54°41' W 005°27'8 8.4
2015-Feb-19 07:33N 54°33' W 005°23'9 8.9
2015-Feb-19 06:33N 54°25' W 005°18'1010.3
2015-Feb-19 05:33N 54°15' W 005°20'19311.9
2015-Feb-18 13:25N 51°03' W 005°53'237 8.5
2015-Feb-17 09:30N 50°34' E 000°19'1111.7
2015-Feb-17 08:32N 50°37' E 000°37'1212.7
2015-Feb-17 07:33N 50°45' E 000°52'2512.6
2015-Feb-17 05:33N 50°60' E 001°24'1414.3
2015-Feb-17 04:33N 51°10' E 001°41'1312.9
2015-Feb-17 03:34N 51°20' E 001°53'1211.5
2015-Feb-17 02:33N 51°30' E 002°03'1110.8
2015-Feb-17 01:33N 51°38' E 002°14'6110.1
2015-Feb-16 19:32N 52°04' E 003°43'1111.0
2015-Feb-16 18:33N 52°01' E 004°00'1313.1
2015-Feb-16 17:33N 51°53' E 004°18'1 0.9
2015-Feb-16 16:26N 51°53' E 004°16'0 0.0
2015-Feb-16 15:29N 51°53' E 004°16'0 0.0
2015-Feb-16 14:32N 51°53' E 004°16'0 0.0
2015-Feb-16 13:32N 51°53' E 004°16'0 0.0
2015-Feb-16 12:26N 51°53' E 004°16'0 0.0
2015-Feb-16 11:32N 51°53' E 004°16'0 0.0
2015-Feb-16 10:32N 51°53' E 004°16'0 0.0
2015-Feb-16 09:32N 51°53' E 004°16'0 0.0
2015-Feb-16 08:32N 51°53' E 004°16'0 0.0
2015-Feb-16 07:32N 51°53' E 004°16'0 0.0
2015-Feb-16 06:23N 51°53' E 004°16'0 0.0
2015-Feb-16 05:32N 51°53' E 004°16'0 0.0
2015-Feb-16 04:32N 51°53' E 004°16'0 0.0
2015-Feb-16 03:23N 51°53' E 004°16'0 0.0
2015-Feb-16 02:32N 51°53' E 004°16'0 0.0
2015-Feb-16 01:32N 51°53' E 004°16'0 0.0
2015-Feb-16 00:32N 51°53' E 004°16'0 0.0
2015-Feb-15 23:32N 51°53' E 004°16'0 0.0
2015-Feb-15 22:32N 51°53' E 004°16'0 0.0
2015-Feb-15 21:29N 51°53' E 004°16'0 0.0
2015-Feb-15 20:32N 51°53' E 004°16'0 0.0
2015-Feb-15 19:29N 51°53' E 004°16'0 0.0
2015-Feb-15 18:33N 51°53' E 004°16'1 0.7
2015-Feb-15 17:33N 51°54' E 004°16'8 8.4
2015-Feb-15 16:33N 51°59' E 004°05'5 5.2
2015-Feb-15 15:31N 51°56' E 004°12'0 0.0
2015-Feb-15 14:31N 51°56' E 004°12'0 0.0
2015-Feb-15 13:31N 51°56' E 004°12'0 0.0
2015-Feb-15 12:31N 51°56' E 004°12'0 0.0
2015-Feb-15 11:31N 51°56' E 004°12'  

Dump ship's entire track history